sensor_id;sensor_type;location;lat;lon;timestamp;pressure;altitude;pressure_sealevel;temperature;humidity
54882;BME280;40775;51.448;4.742;2023-08-06T00:01:06;100312.28;;;16.58;100.00
54882;BME280;40775;51.448;4.742;2023-08-06T00:03:33;100318.50;;;16.56;100.00
54882;BME280;40775;51.448;4.742;2023-08-06T00:06:00;100313.16;;;16.59;100.00
54882;BME280;40775;51.448;4.742;2023-08-06T00:08:27;100314.97;;;16.55;100.00
54882;BME280;40775;51.448;4.742;2023-08-06T00:10:54;100319.34;;;16.58;100.00
54882;BME280;40775;51.448;4.742;2023-08-06T00:13:21;100313.13;;;16.60;100.00
54882;BME280;40775;51.448;4.742;2023-08-06T00:15:50;100308.78;;;16.55;100.00
54882;BME280;40775;51.448;4.742;2023-08-06T00:18:17;100305.25;;;16.54;100.00
54882;BME280;40775;51.448;4.742;2023-08-06T00:20:44;100311.47;;;16.53;100.00
54882;BME280;40775;51.448;4.742;2023-08-06T00:23:11;100312.34;;;16.54;100.00
54882;BME280;40775;51.448;4.742;2023-08-06T00:25:38;100309.66;;;16.55;100.00
54882;BME280;40775;51.448;4.742;2023-08-06T00:28:05;100305.28;;;16.53;100.00
54882;BME280;40775;51.448;4.742;2023-08-06T00:30:32;100307.03;;;16.54;100.00
54882;BME280;40775;51.448;4.742;2023-08-06T00:32:59;100305.25;;;16.56;100.00
54882;BME280;40775;51.448;4.742;2023-08-06T00:35:26;100308.75;;;16.56;100.00
54882;BME280;40775;51.448;4.742;2023-08-06T00:37:53;100310.56;;;16.54;100.00
54882;BME280;40775;51.448;4.742;2023-08-06T00:40:20;100305.25;;;16.56;100.00
54882;BME280;40775;51.448;4.742;2023-08-06T00:42:49;100312.28;;;16.57;100.00
54882;BME280;40775;51.448;4.742;2023-08-06T00:45:16;100300.84;;;16.55;100.00
54882;BME280;40775;51.448;4.742;2023-08-06T00:47:43;100299.97;;;16.53;100.00
54882;BME280;40775;51.448;4.742;2023-08-06T00:50:10;100296.47;;;16.51;100.00
54882;BME280;40775;51.448;4.742;2023-08-06T00:52:37;100299.97;;;16.53;100.00
54882;BME280;40775;51.448;4.742;2023-08-06T00:55:06;100307.06;;;16.52;100.00
54882;BME280;40775;51.448;4.742;2023-08-06T00:57:33;100297.31;;;16.54;100.00
54882;BME280;40775;51.448;4.742;2023-08-06T01:00:01;100309.66;;;16.55;100.00
54882;BME280;40775;51.448;4.742;2023-08-06T01:02:29;100298.22;;;16.52;100.00
54882;BME280;40775;51.448;4.742;2023-08-06T01:04:56;100306.19;;;16.50;100.00
54882;BME280;40775;51.448;4.742;2023-08-06T01:12:51;100307.06;;;16.52;100.00
54882;BME280;40775;51.448;4.742;2023-08-06T01:15:25;100300.03;;;16.50;100.00
54882;BME280;40775;51.448;4.742;2023-08-06T01:17:54;100300.03;;;16.48;100.00
54882;BME280;40775;51.448;4.742;2023-08-06T01:20:22;100301.81;;;16.48;100.00
54882;BME280;40775;51.448;4.742;2023-08-06T01:22:49;100307.16;;;16.45;100.00
54882;BME280;40775;51.448;4.742;2023-08-06T01:25:16;100308.00;;;16.47;100.00
54882;BME280;40775;51.448;4.742;2023-08-06T01:27:49;100298.31;;;16.46;100.00
54882;BME280;40775;51.448;4.742;2023-08-06T01:30:25;100302.75;;;16.45;100.00
54882;BME280;40775;51.448;4.742;2023-08-06T01:32:59;100310.66;;;16.47;100.00
54882;BME280;40775;51.448;4.742;2023-08-06T01:35:27;100306.25;;;16.46;100.00
54882;BME280;40775;51.448;4.742;2023-08-06T01:37:55;100300.06;;;16.47;100.00
54882;BME280;40775;51.448;4.742;2023-08-06T01:40:23;100307.16;;;16.45;100.00
54882;BME280;40775;51.448;4.742;2023-08-06T01:42:50;100308.03;;;16.45;100.00
54882;BME280;40775;51.448;4.742;2023-08-06T01:45:17;100314.22;;;16.44;100.00
54882;BME280;40775;51.448;4.742;2023-08-06T01:47:44;100306.28;;;16.43;100.00
54882;BME280;40775;51.448;4.742;2023-08-06T01:50:11;100310.72;;;16.41;100.00
54882;BME280;40775;51.448;4.742;2023-08-06T01:52:38;100310.72;;;16.39;100.00
54882;BME280;40775;51.448;4.742;2023-08-06T01:55:05;100314.22;;;16.43;100.00
54882;BME280;40775;51.448;4.742;2023-08-06T01:57:32;100316.00;;;16.41;100.00
54882;BME280;40775;51.448;4.742;2023-08-06T01:59:59;100307.16;;;16.42;100.00
54882;BME280;40775;51.448;4.742;2023-08-06T02:02:26;100311.59;;;16.41;100.00
54882;BME280;40775;51.448;4.742;2023-08-06T02:04:53;100308.03;;;16.42;100.00
54882;BME280;40775;51.448;4.742;2023-08-06T02:07:21;100311.63;;;16.39;100.00
54882;BME280;40775;51.448;4.742;2023-08-06T02:09:48;100309.88;;;16.37;100.00
54882;BME280;40775;51.448;4.742;2023-08-06T02:12:15;100311.63;;;16.39;100.00
54882;BME280;40775;51.448;4.742;2023-08-06T02:14:41;100309.84;;;16.40;100.00
54882;BME280;40775;51.448;4.742;2023-08-06T02:17:08;100313.41;;;16.37;100.00
54882;BME280;40775;51.448;4.742;2023-08-06T02:19:35;100315.19;;;16.37;100.00
54882;BME280;40775;51.448;4.742;2023-08-06T02:22:03;100314.34;;;16.33;100.00
54882;BME280;40775;51.448;4.742;2023-08-06T02:24:30;100313.47;;;16.33;100.00
54882;BME280;40775;51.448;4.742;2023-08-06T02:26:57;100323.19;;;16.32;100.00
54882;BME280;40775;51.448;4.742;2023-08-06T02:29:24;100321.44;;;16.30;100.00
54882;BME280;40775;51.448;4.742;2023-08-06T02:31:51;100331.16;;;16.29;100.00
54882;BME280;40775;51.448;4.742;2023-08-06T02:34:18;100324.97;;;16.32;100.00
54882;BME280;40775;51.448;4.742;2023-08-06T02:36:45;100318.75;;;16.34;100.00
54882;BME280;40775;51.448;4.742;2023-08-06T02:39:12;100333.78;;;16.32;100.00
54882;BME280;40775;51.448;4.742;2023-08-06T02:41:41;100330.31;;;16.27;100.00
54882;BME280;40775;51.448;4.742;2023-08-06T02:44:08;100328.56;;;16.25;100.00
54882;BME280;40775;51.448;4.742;2023-08-06T02:46:35;100332.97;;;16.26;100.00
54882;BME280;40775;51.448;4.742;2023-08-06T02:49:02;100337.41;;;16.25;100.00
54882;BME280;40775;51.448;4.742;2023-08-06T02:51:29;100334.75;;;16.25;100.00
54882;BME280;40775;51.448;4.742;2023-08-06T02:53:56;100347.09;;;16.26;100.00
54882;BME280;40775;51.448;4.742;2023-08-06T02:56:23;100337.38;;;16.27;100.00
54882;BME280;40775;51.448;4.742;2023-08-06T02:58:50;100341.81;;;16.26;100.00
54882;BME280;40775;51.448;4.742;2023-08-06T03:01:17;100336.47;;;16.28;100.00
54882;BME280;40775;51.448;4.742;2023-08-06T03:03:44;100341.81;;;16.26;100.00
54882;BME280;40775;51.448;4.742;2023-08-06T03:06:11;100339.13;;;16.28;100.00
54882;BME280;40775;51.448;4.742;2023-08-06T03:08:38;100345.31;;;16.27;100.00
54882;BME280;40775;51.448;4.742;2023-08-06T03:11:05;100350.59;;;16.28;100.00
54882;BME280;40775;51.448;4.742;2023-08-06T03:13:32;100346.19;;;16.27;100.00
54882;BME280;40775;51.448;4.742;2023-08-06T03:15:59;100345.31;;;16.28;100.00
54882;BME280;40775;51.448;4.742;2023-08-06T03:18:27;100344.41;;;16.29;100.00
54882;BME280;40775;51.448;4.742;2023-08-06T03:20:54;100351.50;;;16.27;100.00
54882;BME280;40775;51.448;4.742;2023-08-06T03:23:21;100344.44;;;16.28;100.00
54882;BME280;40775;51.448;4.742;2023-08-06T03:25:49;100346.19;;;16.27;100.00
54882;BME280;40775;51.448;4.742;2023-08-06T03:28:16;100355.03;;;16.26;100.00
54882;BME280;40775;51.448;4.742;2023-08-06T03:30:43;100353.28;;;16.27;100.00
54882;BME280;40775;51.448;4.742;2023-08-06T03:33:10;100363.84;;;16.28;100.00
54882;BME280;40775;51.448;4.742;2023-08-06T03:35:37;100365.59;;;16.29;100.00
54882;BME280;40775;51.448;4.742;2023-08-06T03:38:04;100363.88;;;16.27;100.00
54882;BME280;40775;51.448;4.742;2023-08-06T03:40:31;100368.28;;;16.26;100.00
54882;BME280;40775;51.448;4.742;2023-08-06T03:42:58;100363.88;;;16.25;100.00
54882;BME280;40775;51.448;4.742;2023-08-06T03:45:25;100370.06;;;16.26;100.00
54882;BME280;40775;51.448;4.742;2023-08-06T03:47:52;100363.88;;;16.25;100.00
54882;BME280;40775;51.448;4.742;2023-08-06T03:50:19;100367.44;;;16.23;100.00
54882;BME280;40775;51.448;4.742;2023-08-06T03:52:49;100365.69;;;16.23;100.00
54882;BME280;40775;51.448;4.742;2023-08-06T03:55:16;100379.78;;;16.25;100.00
54882;BME280;40775;51.448;4.742;2023-08-06T03:57:44;100378.03;;;16.24;100.00
54882;BME280;40775;51.448;4.742;2023-08-06T04:00:11;100380.66;;;16.24;100.00
54882;BME280;40775;51.448;4.742;2023-08-06T04:02:39;100391.25;;;16.24;100.00
54882;BME280;40775;51.448;4.742;2023-08-06T04:05:06;100389.50;;;16.25;100.00
54882;BME280;40775;51.448;4.742;2023-08-06T04:07:34;100390.38;;;16.25;100.00
54882;BME280;40775;51.448;4.742;2023-08-06T04:10:04;100388.59;;;16.26;100.00
54882;BME280;40775;51.448;4.742;2023-08-06T04:12:31;100392.13;;;16.26;100.00
54882;BME280;40775;51.448;4.742;2023-08-06T04:15:03;100397.44;;;16.25;100.00
54882;BME280;40775;51.448;4.742;2023-08-06T04:17:31;100404.50;;;16.24;100.00
54882;BME280;40775;51.448;4.742;2023-08-06T04:19:58;100405.38;;;16.26;100.00
54882;BME280;40775;51.448;4.742;2023-08-06T04:22:25;100397.44;;;16.25;100.00
54882;BME280;40775;51.448;4.742;2023-08-06T04:24:53;100408.06;;;16.23;100.00
54882;BME280;40775;51.448;4.742;2023-08-06T04:27:20;100408.00;;;16.26;100.00
54882;BME280;40775;51.448;4.742;2023-08-06T04:29:47;100419.50;;;16.27;100.00
54882;BME280;40775;51.448;4.742;2023-08-06T04:32:14;100410.69;;;16.25;100.00
54882;BME280;40775;51.448;4.742;2023-08-06T04:34:41;100414.19;;;16.27;100.00
54882;BME280;40775;51.448;4.742;2023-08-06T04:37:08;100423.91;;;16.26;100.00
54882;BME280;40775;51.448;4.742;2023-08-06T04:39:35;100430.06;;;16.28;100.00
54882;BME280;40775;51.448;4.742;2023-08-06T04:42:02;100425.72;;;16.23;100.00
54882;BME280;40775;51.448;4.742;2023-08-06T04:44:29;100429.34;;;16.11;100.00
54882;BME280;40775;51.448;4.742;2023-08-06T04:46:56;100436.56;;;15.95;100.00
54882;BME280;40775;51.448;4.742;2023-08-06T04:49:24;100432.19;;;15.87;100.00
54882;BME280;40775;51.448;4.742;2023-08-06T04:51:51;100457.59;;;16.09;100.00
54882;BME280;40775;51.448;4.742;2023-08-06T04:54:19;100454.13;;;16.02;100.00
54882;BME280;40775;51.448;4.742;2023-08-06T04:56:46;100458.56;;;16.02;100.00
54882;BME280;40775;51.448;4.742;2023-08-06T04:59:13;100450.59;;;16.03;100.00
54882;BME280;40775;51.448;4.742;2023-08-06T05:01:40;100462.09;;;16.01;100.00
54882;BME280;40775;51.448;4.742;2023-08-06T05:04:07;100463.88;;;15.97;100.00
54882;BME280;40775;51.448;4.742;2023-08-06T05:06:34;100471.78;;;16.02;100.00
54882;BME280;40775;51.448;4.742;2023-08-06T05:09:01;100493.06;;;15.87;100.00
54882;BME280;40775;51.448;4.742;2023-08-06T05:11:28;100482.47;;;15.87;100.00
54882;BME280;40775;51.448;4.742;2023-08-06T05:13:55;100491.25;;;15.95;100.00
54882;BME280;40775;51.448;4.742;2023-08-06T05:16:23;100497.50;;;15.83;100.00
54882;BME280;40775;51.448;4.742;2023-08-06T05:18:50;100504.50;;;15.93;100.00
54882;BME280;40775;51.448;4.742;2023-08-06T05:21:17;100508.94;;;15.93;100.00
54882;BME280;40775;51.448;4.742;2023-08-06T05:23:44;100509.81;;;15.87;100.00
54882;BME280;40775;51.448;4.742;2023-08-06T05:26:11;100513.47;;;15.74;100.00
54882;BME280;40775;51.448;4.742;2023-08-06T05:28:38;100536.38;;;15.76;100.00
54882;BME280;40775;51.448;4.742;2023-08-06T05:31:05;100543.41;;;15.79;100.00
54882;BME280;40775;51.448;4.742;2023-08-06T05:33:32;100526.69;;;15.74;100.00
54882;BME280;40775;51.448;4.742;2023-08-06T05:35:59;100542.50;;;15.82;100.00
54882;BME280;40775;51.448;4.742;2023-08-06T05:38:27;100548.69;;;15.84;100.00
54882;BME280;40775;51.448;4.742;2023-08-06T05:40:54;100569.03;;;15.72;100.00
54882;BME280;40775;51.448;4.742;2023-08-06T05:43:22;100568.97;;;15.85;100.00
54882;BME280;40775;51.448;4.742;2023-08-06T05:45:50;100574.28;;;15.83;100.00
54882;BME280;40775;51.448;4.742;2023-08-06T05:48:17;100583.09;;;15.84;100.00
54882;BME280;40775;51.448;4.742;2023-08-06T05:50:44;100585.78;;;15.77;100.00
54882;BME280;40775;51.448;4.742;2023-08-06T05:53:11;100591.03;;;15.82;100.00
54882;BME280;40775;51.448;4.742;2023-08-06T05:55:39;100591.03;;;15.85;100.00
54882;BME280;40775;51.448;4.742;2023-08-06T05:58:06;100598.09;;;15.85;100.00
54882;BME280;40775;51.448;4.742;2023-08-06T06:00:33;100600.72;;;15.85;100.00
54882;BME280;40775;51.448;4.742;2023-08-06T06:03:00;100607.78;;;15.86;100.00
54882;BME280;40775;51.448;4.742;2023-08-06T06:05:27;100606.91;;;15.90;100.00
54882;BME280;40775;51.448;4.742;2023-08-06T06:07:54;100621.00;;;15.87;100.00
54882;BME280;40775;51.448;4.742;2023-08-06T06:10:21;100612.19;;;15.88;100.00
54882;BME280;40775;51.448;4.742;2023-08-06T06:12:48;100622.78;;;15.91;100.00
54882;BME280;40775;51.448;4.742;2023-08-06T06:15:15;100618.38;;;15.86;100.00
54882;BME280;40775;51.448;4.742;2023-08-06T06:17:42;100627.19;;;15.88;100.00
54882;BME280;40775;51.448;4.742;2023-08-06T06:20:10;100638.66;;;15.88;100.00
54882;BME280;40775;51.448;4.742;2023-08-06T06:22:37;100643.97;;;15.87;100.00
54882;BME280;40775;51.448;4.742;2023-08-06T06:25:05;100650.16;;;15.83;100.00
54882;BME280;40775;51.448;4.742;2023-08-06T06:27:32;100653.69;;;15.89;100.00
54882;BME280;40775;51.448;4.742;2023-08-06T06:29:59;100654.59;;;15.79;100.00
54882;BME280;40775;51.448;4.742;2023-08-06T06:32:26;100661.59;;;15.88;100.00
54882;BME280;40775;51.448;4.742;2023-08-06T06:34:54;100673.09;;;15.90;100.00
54882;BME280;40775;51.448;4.742;2023-08-06T06:37:21;100666.03;;;15.81;100.00
54882;BME280;40775;51.448;4.742;2023-08-06T06:39:48;100678.38;;;15.84;100.00
54882;BME280;40775;51.448;4.742;2023-08-06T06:42:15;100680.16;;;15.82;100.00
54882;BME280;40775;51.448;4.742;2023-08-06T06:44:43;100681.94;;;15.80;100.00
54882;BME280;40775;51.448;4.742;2023-08-06T06:47:10;100691.66;;;15.77;100.00
54882;BME280;40775;51.448;4.742;2023-08-06T06:49:37;100695.19;;;15.78;100.00
54882;BME280;40775;51.448;4.742;2023-08-06T06:52:04;100691.66;;;15.77;100.00
54882;BME280;40775;51.448;4.742;2023-08-06T06:54:31;100696.06;;;15.79;100.00
54882;BME280;40775;51.448;4.742;2023-08-06T06:56:58;100696.94;;;15.77;100.00
54882;BME280;40775;51.448;4.742;2023-08-06T06:59:25;100696.06;;;15.74;100.00
54882;BME280;40775;51.448;4.742;2023-08-06T07:01:52;100698.72;;;15.75;100.00
54882;BME280;40775;51.448;4.742;2023-08-06T07:04:20;100704.88;;;15.76;100.00
54882;BME280;40775;51.448;4.742;2023-08-06T07:06:47;100711.09;;;15.70;100.00
54882;BME280;40775;51.448;4.742;2023-08-06T07:09:14;100699.59;;;15.74;100.00
54882;BME280;40775;51.448;4.742;2023-08-06T07:11:41;100708.41;;;15.75;100.00
54882;BME280;40775;51.448;4.742;2023-08-06T07:14:10;100707.56;;;15.71;100.00
54882;BME280;40775;51.448;4.742;2023-08-06T07:16:37;100715.47;;;15.74;100.00
54882;BME280;40775;51.448;4.742;2023-08-06T07:19:04;100715.47;;;15.77;100.00
54882;BME280;40775;51.448;4.742;2023-08-06T07:21:32;100714.56;;;15.80;100.00
54882;BME280;40775;51.448;4.742;2023-08-06T07:23:59;100717.22;;;15.79;100.00
54882;BME280;40775;51.448;4.742;2023-08-06T07:26:26;100717.22;;;15.80;100.00
54882;BME280;40775;51.448;4.742;2023-08-06T07:28:53;100727.81;;;15.82;100.00
54882;BME280;40775;51.448;4.742;2023-08-06T07:31:20;100727.81;;;15.82;100.00
54882;BME280;40775;51.448;4.742;2023-08-06T07:33:47;100732.22;;;15.83;100.00
54882;BME280;40775;51.448;4.742;2023-08-06T07:36:15;100733.97;;;15.84;100.00
54882;BME280;40775;51.448;4.742;2023-08-06T07:38:42;100729.56;;;15.86;100.00
54882;BME280;40775;51.448;4.742;2023-08-06T07:41:09;100724.25;;;15.87;100.00
54882;BME280;40775;51.448;4.742;2023-08-06T07:43:36;100737.50;;;15.89;100.00
54882;BME280;40775;51.448;4.742;2023-08-06T07:46:03;100733.94;;;15.88;100.00
54882;BME280;40775;51.448;4.742;2023-08-06T07:48:30;100737.50;;;15.90;100.00
54882;BME280;40775;51.448;4.742;2023-08-06T07:50:57;100738.38;;;15.91;100.00
54882;BME280;40775;51.448;4.742;2023-08-06T07:53:25;100731.34;;;15.90;100.00
54882;BME280;40775;51.448;4.742;2023-08-06T07:55:57;100730.44;;;15.92;100.00
54882;BME280;40775;51.448;4.742;2023-08-06T07:58:25;100726.00;;;15.96;100.00
54882;BME280;40775;51.448;4.742;2023-08-06T08:00:52;100719.81;;;15.97;100.00
54882;BME280;40775;51.448;4.742;2023-08-06T08:03:19;100732.19;;;15.93;100.00
54882;BME280;40775;51.448;4.742;2023-08-06T08:05:46;100725.13;;;15.98;100.00
54882;BME280;40775;51.448;4.742;2023-08-06T08:08:13;100724.22;;;16.01;100.00
54882;BME280;40775;51.448;4.742;2023-08-06T08:10:41;100731.28;;;16.03;100.00
54882;BME280;40775;51.448;4.742;2023-08-06T08:13:08;100730.38;;;16.07;100.00
54882;BME280;40775;51.448;4.742;2023-08-06T08:15:35;100726.81;;;16.10;100.00
54882;BME280;40775;51.448;4.742;2023-08-06T08:18:02;100727.69;;;16.11;100.00
54882;BME280;40775;51.448;4.742;2023-08-06T08:20:29;100736.50;;;16.13;100.00
54882;BME280;40775;51.448;4.742;2023-08-06T08:23:00;100732.09;;;16.18;100.00
54882;BME280;40775;51.448;4.742;2023-08-06T08:25:27;100732.97;;;16.21;100.00
54882;BME280;40775;51.448;4.742;2023-08-06T08:27:57;100738.25;;;16.23;100.00
54882;BME280;40775;51.448;4.742;2023-08-06T08:30:25;100737.38;;;16.22;100.00
54882;BME280;40775;51.448;4.742;2023-08-06T08:32:52;100740.91;;;16.21;100.00
54882;BME280;40775;51.448;4.742;2023-08-06T08:35:20;100745.31;;;16.25;100.00
54882;BME280;40775;51.448;4.742;2023-08-06T08:37:46;100743.53;;;16.27;100.00
54882;BME280;40775;51.448;4.742;2023-08-06T08:40:14;100742.63;;;16.28;100.00
54882;BME280;40775;51.448;4.742;2023-08-06T08:42:42;100739.97;;;16.34;100.00
54882;BME280;40775;51.448;4.742;2023-08-06T08:45:14;100748.78;;;16.36;100.00
54882;BME280;40775;51.448;4.742;2023-08-06T08:47:42;100742.56;;;16.41;100.00
54882;BME280;40775;51.448;4.742;2023-08-06T08:50:13;100750.53;;;16.45;100.00
54882;BME280;40775;51.448;4.742;2023-08-06T08:52:42;100754.00;;;16.52;100.00
54882;BME280;40775;51.448;4.742;2023-08-06T08:55:15;100742.53;;;16.50;100.00
54882;BME280;40775;51.448;4.742;2023-08-06T08:57:42;100749.56;;;16.54;100.00
54882;BME280;40775;51.448;4.742;2023-08-06T09:00:10;100753.09;;;16.57;100.00
54882;BME280;40775;51.448;4.742;2023-08-06T09:02:38;100741.59;;;16.57;100.00
54882;BME280;40775;51.448;4.742;2023-08-06T09:05:07;100745.13;;;16.60;100.00
54882;BME280;40775;51.448;4.742;2023-08-06T09:07:43;100755.69;;;16.68;100.00
54882;BME280;40775;51.448;4.742;2023-08-06T09:10:16;100746.88;;;16.72;100.00
54882;BME280;40775;51.448;4.742;2023-08-06T09:12:49;100750.34;;;16.79;100.00
54882;BME280;40775;51.448;4.742;2023-08-06T09:15:17;100760.00;;;16.86;100.00
54882;BME280;40775;51.448;4.742;2023-08-06T09:17:44;100759.16;;;16.81;100.00
54882;BME280;40775;51.448;4.742;2023-08-06T09:20:13;100752.88;;;16.98;100.00
54882;BME280;40775;51.448;4.742;2023-08-06T09:22:41;100750.25;;;16.89;100.00
54882;BME280;40775;51.448;4.742;2023-08-06T09:25:08;100759.91;;;17.01;100.00
54882;BME280;40775;51.448;4.742;2023-08-06T09:27:40;100753.78;;;16.91;100.00
54882;BME280;40775;51.448;4.742;2023-08-06T09:30:07;100759.03;;;16.97;100.00
54882;BME280;40775;51.448;4.742;2023-08-06T09:32:48;100756.34;;;17.05;100.00
54882;BME280;40775;51.448;4.742;2023-08-06T09:35:18;100767.78;;;17.12;100.00
54882;BME280;40775;51.448;4.742;2023-08-06T09:37:46;100773.13;;;17.09;100.00
54882;BME280;40775;51.448;4.742;2023-08-06T09:40:31;100767.78;;;17.12;100.00
54882;BME280;40775;51.448;4.742;2023-08-06T09:42:59;100776.59;;;17.14;100.00
54882;BME280;40775;51.448;4.742;2023-08-06T09:45:40;100785.34;;;17.28;100.00
54882;BME280;40775;51.448;4.742;2023-08-06T09:48:09;100780.88;;;17.33;100.00
54882;BME280;40775;51.448;4.742;2023-08-06T09:50:37;100787.09;;;17.32;100.00
54882;BME280;40775;51.448;4.742;2023-08-06T09:53:07;100797.63;;;17.38;100.00
54882;BME280;40775;51.448;4.742;2023-08-06T09:55:35;100786.06;;;17.45;100.00
54882;BME280;40775;51.448;4.742;2023-08-06T09:58:02;100793.09;;;17.54;100.00
54882;BME280;40775;51.448;4.742;2023-08-06T10:00:31;100800.94;;;17.65;100.00
54882;BME280;40775;51.448;4.742;2023-08-06T10:03:02;100802.81;;;17.56;100.00
54882;BME280;40775;51.448;4.742;2023-08-06T10:05:31;100801.84;;;17.65;100.00
54882;BME280;40775;51.448;4.742;2023-08-06T10:08:01;100793.75;;;17.79;100.00
54882;BME280;40775;51.448;4.742;2023-08-06T10:10:29;100800.06;;;17.64;100.00
54882;BME280;40775;51.448;4.742;2023-08-06T10:12:57;100799.97;;;17.81;100.00
54882;BME280;40775;51.448;4.742;2023-08-06T10:15:27;100799.78;;;17.95;100.00
54882;BME280;40775;51.448;4.742;2023-08-06T10:17:57;100805.94;;;18.00;100.00
54882;BME280;40775;51.448;4.742;2023-08-06T10:20:26;100804.28;;;17.88;100.00
54882;BME280;40775;51.448;4.742;2023-08-06T10:23:08;100793.50;;;18.02;100.00
54882;BME280;40775;51.448;4.742;2023-08-06T10:25:40;100790.81;;;18.05;100.00
54882;BME280;40775;51.448;4.742;2023-08-06T10:28:09;100791.56;;;18.19;100.00
54882;BME280;40775;51.448;4.742;2023-08-06T10:30:47;100788.03;;;18.18;100.00
54882;BME280;40775;51.448;4.742;2023-08-06T10:33:16;100796.69;;;18.33;100.00
54882;BME280;40775;51.448;4.742;2023-08-06T10:35:49;100790.44;;;18.40;100.00
54882;BME280;40775;51.448;4.742;2023-08-06T10:38:20;100791.38;;;18.36;100.00
54882;BME280;40775;51.448;4.742;2023-08-06T10:43:35;100806.44;;;18.32;100.00
54882;BME280;40775;51.448;4.742;2023-08-06T10:46:09;100824.31;;;18.19;100.00
54882;BME280;40775;51.448;4.742;2023-08-06T10:48:41;100818.31;;;18.01;100.00
54882;BME280;40775;51.448;4.742;2023-08-06T10:51:13;100840.41;;;18.04;100.00
54882;BME280;40775;51.448;4.742;2023-08-06T10:53:49;100838.66;;;18.02;100.00
54882;BME280;40775;51.448;4.742;2023-08-06T10:56:19;100853.88;;;17.89;100.00
54882;BME280;40775;51.448;4.742;2023-08-06T10:58:47;100848.47;;;17.95;100.00
54882;BME280;40775;51.448;4.742;2023-08-06T11:01:14;100852.91;;;17.96;100.00
54882;BME280;40775;51.448;4.742;2023-08-06T11:03:44;100854.47;;;18.17;100.00
54882;BME280;40775;51.448;4.742;2023-08-06T11:06:18;100855.50;;;18.02;100.00
54882;BME280;40775;51.448;4.742;2023-08-06T11:08:53;100849.28;;;18.02;100.00
54882;BME280;40775;51.448;4.742;2023-08-06T11:11:22;100857.19;;;18.08;100.00
54882;BME280;40775;51.448;4.742;2023-08-06T11:13:51;100855.59;;;17.93;100.00
54882;BME280;40775;51.448;4.742;2023-08-06T11:16:22;100842.28;;;17.96;100.00
54882;BME280;40775;51.448;4.742;2023-08-06T11:18:52;100865.19;;;18.06;100.00
54882;BME280;40775;51.448;4.742;2023-08-06T11:21:22;100859.88;;;18.05;100.00
54882;BME280;40775;51.448;4.742;2023-08-06T11:23:51;100871.41;;;18.08;100.00
54882;BME280;40775;51.448;4.742;2023-08-06T11:26:22;100861.72;;;18.00;100.00
54882;BME280;40775;51.448;4.742;2023-08-06T11:28:54;100863.41;;;18.10;100.00
54882;BME280;40775;51.448;4.742;2023-08-06T11:31:23;100839.50;;;18.05;100.00
54882;BME280;40775;51.448;4.742;2023-08-06T11:33:54;100862.75;;;17.85;100.00
54882;BME280;40775;51.448;4.742;2023-08-06T11:36:39;100844.81;;;18.08;100.00
54882;BME280;40775;51.448;4.742;2023-08-06T11:39:07;100849.19;;;18.14;100.00
54882;BME280;40775;51.448;4.742;2023-08-06T11:41:36;100846.38;;;18.28;100.00
54882;BME280;40775;51.448;4.742;2023-08-06T11:44:11;100853.41;;;18.30;100.00
54882;BME280;40775;51.448;4.742;2023-08-06T11:47:00;100848.97;;;18.31;100.00
54882;BME280;40775;51.448;4.742;2023-08-06T11:49:38;100857.94;;;18.22;100.00
54882;BME280;40775;51.448;4.742;2023-08-06T11:52:13;100863.34;;;18.14;100.00
54882;BME280;40775;51.448;4.742;2023-08-06T11:54:42;100862.25;;;18.32;100.00
54882;BME280;40775;51.448;4.742;2023-08-06T11:57:11;100853.31;;;18.41;100.00
54882;BME280;40775;51.448;4.742;2023-08-06T11:59:39;100863.03;;;18.43;100.00
54882;BME280;40775;51.448;4.742;2023-08-06T12:02:09;100862.03;;;18.52;100.00
54882;BME280;40775;51.448;4.742;2023-08-06T12:05:03;100853.44;;;18.29;100.00
54882;BME280;40775;51.448;4.742;2023-08-06T12:07:38;100855.94;;;18.44;100.00
54882;BME280;40775;51.448;4.742;2023-08-06T12:10:06;100854.19;;;18.43;100.00
54882;BME280;40775;51.448;4.742;2023-08-06T12:12:34;100856.19;;;18.21;100.00
54882;BME280;40775;51.448;4.742;2023-08-06T12:15:03;100852.63;;;18.22;100.00
54882;BME280;40775;51.448;4.742;2023-08-06T12:17:30;100855.22;;;18.27;100.00
54882;BME280;40775;51.448;4.742;2023-08-06T12:19:57;100853.38;;;18.35;100.00
54882;BME280;40775;51.448;4.742;2023-08-06T12:22:24;100863.13;;;18.34;100.00
54882;BME280;40775;51.448;4.742;2023-08-06T12:24:51;100870.19;;;18.38;100.00
54882;BME280;40775;51.448;4.742;2023-08-06T12:27:18;100869.31;;;18.38;100.00
54882;BME280;40775;51.448;4.742;2023-08-06T12:29:48;100868.44;;;18.34;100.00
54882;BME280;40775;51.448;4.742;2023-08-06T12:32:15;100872.91;;;18.31;100.00
54882;BME280;40775;51.448;4.742;2023-08-06T12:34:42;100870.25;;;18.31;100.00
54882;BME280;40775;51.448;4.742;2023-08-06T12:37:19;100865.75;;;18.39;100.00
54882;BME280;40775;51.448;4.742;2023-08-06T12:39:47;100870.03;;;18.50;100.00
54882;BME280;40775;51.448;4.742;2023-08-06T12:42:14;100875.25;;;18.57;100.00
54882;BME280;40775;51.448;4.742;2023-08-06T12:44:41;100881.53;;;18.52;100.00
54882;BME280;40775;51.448;4.742;2023-08-06T12:47:08;100871.84;;;18.47;100.00
54882;BME280;40775;51.448;4.742;2023-08-06T12:49:35;100870.88;;;18.52;100.00
54882;BME280;40775;51.448;4.742;2023-08-06T12:52:02;100874.50;;;18.47;100.00
54882;BME280;40775;51.448;4.742;2023-08-06T12:54:33;100887.94;;;18.33;100.00